map of LEH home
LEH - Airport
Location
City:  Le Havre, Haute-Normandie (Upper Normandy), France
Name:Octeville
ICAO:LFOH
IATA:LEH

Details
Type:Airport (Aerodrome, Airfield)
Use:Public/Civil
Latitude:4932'02"N (49.533889)
Longitude:005'17"E (0.088056)
Elevation:313 ft (95 m)
Variation:0.06W (WMM2015 magnetic declination)
0.14 annual change
Runways:1
Longest:7546 × 131 ft (2300 × 40 m), paved

Time
Time Zone:UTC+1 (DST+2)
Local Time:

Weather
METAR:LFOH 220230Z AUTO 02011KT 9999 BKN017 BKN025 14/12 Q1029
TAF:LFOH 211800Z 2118/2212 CNL

Related Locations
Nearby:
Farthest:CHT: 12003 mi / 19317 km
Waitangi [Tuuta], CIT, NZ

Find:

   beyond  
but within

Other Information
Maps:
NOTAMs:
Links:
Sources:

  
  • flag of France
  • flag of Haute-Normandie (Upper Normandy)
  

Sectional Chart

Flight Planning
at skyvector.com

Satellite Image

Google Maps Satellite view

 

Copyright © 2004-2018 Karl L. Swartz. All rights reserved.
The Great Circle Mapper name and logo are trademarks of the Great Circle Mapper.
All other trademarks mentioned herein belong to their respective owners.
Please see credits for attibutions and further copyright information.

  Follow gcmap on Facebook Follow gcmap on Twitter Follow gcmap on Google+ GCmap on LinkedIn

hCard Microformat

Geo Microformat